createdAt,value
2022-10-05T00:01:41.408Z,101688.38
2022-10-05T00:04:12.182Z,101699.88
2022-10-05T00:06:39.074Z,101695.81
2022-10-05T00:09:32.590Z,101677.97
2022-10-05T00:11:59.450Z,101674.78
2022-10-05T00:14:31.170Z,101686.19
2022-10-05T00:16:58.117Z,101701.53
2022-10-05T00:19:29.628Z,101705.41
2022-10-05T00:22:19.572Z,101708.34
2022-10-05T00:24:47.210Z,101704.28
2022-10-05T00:27:20.667Z,101688.00
2022-10-05T00:29:47.989Z,101666.06
2022-10-05T00:32:14.908Z,101650.19
2022-10-05T00:34:42.131Z,101677.13
2022-10-05T00:37:09.111Z,101662.00
2022-10-05T00:39:36.987Z,101674.53
2022-10-05T00:42:22.370Z,101671.78
2022-10-05T00:45:15.831Z,101671.38
2022-10-05T00:48:04.716Z,101668.34
2022-10-05T00:50:55.730Z,101668.84
2022-10-05T00:53:44.075Z,101659.84
2022-10-05T00:56:48.409Z,101653.34
2022-10-05T00:59:30.447Z,101660.75
2022-10-05T01:02:05.822Z,101653.53
2022-10-05T01:04:45.570Z,101645.56
2022-10-05T01:07:22.332Z,101644.75
2022-10-05T01:10:00.709Z,101651.63
2022-10-05T01:12:27.409Z,101642.03
2022-10-05T01:14:56.712Z,101617.72
2022-10-05T01:17:32.793Z,101627.19
2022-10-05T01:20:27.572Z,101617.66
2022-10-05T01:23:14.045Z,101616.13
2022-10-05T01:25:53.668Z,101611.56
2022-10-05T01:28:22.928Z,101615.00
2022-10-05T01:30:57.813Z,101601.13
2022-10-05T01:33:27.567Z,101623.50
2022-10-05T01:36:01.774Z,101629.03
2022-10-05T01:38:28.507Z,101624.66
2022-10-05T01:41:37.249Z,101629.78
2022-10-05T01:44:32.610Z,101618.72
2022-10-05T01:47:25.930Z,101629.22
2022-10-05T01:50:04.771Z,101625.78
2022-10-05T01:52:44.512Z,101620.13
2022-10-05T01:55:29.353Z,101610.09
2022-10-05T01:58:03.771Z,101623.56
2022-10-05T02:00:32.390Z,101611.22
2022-10-05T02:03:24.809Z,101616.22
2022-10-05T02:06:10.187Z,101629.41
2022-10-05T02:09:13.814Z,101606.19
2022-10-05T02:11:41.147Z,101610.38
2022-10-05T02:14:12.468Z,101576.81
2022-10-05T02:16:43.612Z,101605.28
2022-10-05T02:19:14.891Z,101606.19
2022-10-05T02:21:42.155Z,101614.03
2022-10-05T02:24:11.428Z,101604.66
2022-10-05T02:26:38.274Z,101600.84
2022-10-05T02:29:08.011Z,101580.50
2022-10-05T02:31:46.011Z,101578.09
2022-10-05T02:34:36.189Z,101565.03
2022-10-05T02:37:24.812Z,101562.75
2022-10-05T02:39:58.554Z,101569.03
2022-10-05T02:42:28.168Z,101528.28
2022-10-05T02:45:13.780Z,101560.81
2022-10-05T02:47:44.830Z,101545.44
2022-10-05T02:50:29.789Z,101555.19
2022-10-05T02:53:00.330Z,101549.56
2022-10-05T02:55:39.287Z,101555.72
2022-10-05T02:58:13.747Z,101529.38
2022-10-05T03:00:46.903Z,101550.19
2022-10-05T03:03:38.275Z,101560.22
2022-10-05T03:06:15.811Z,101541.81
2022-10-05T03:09:01.288Z,101538.44
2022-10-05T03:11:40.234Z,101533.56
2022-10-05T03:14:37.468Z,101532.22
2022-10-05T03:17:19.177Z,101537.84
2022-10-05T03:20:23.108Z,101545.91
2022-10-05T03:23:02.748Z,101537.75
2022-10-05T03:25:38.970Z,101532.66
2022-10-05T03:28:22.692Z,101531.84
2022-10-05T03:30:56.375Z,101525.25
2022-10-05T03:33:36.468Z,101547.47
2022-10-05T03:36:10.086Z,101552.69
2022-10-05T03:38:55.332Z,101539.75
2022-10-05T03:41:31.769Z,101534.66
2022-10-05T03:44:20.149Z,101525.13
2022-10-05T03:46:50.537Z,101528.81
2022-10-05T03:49:23.087Z,101530.78
2022-10-05T03:52:11.936Z,101523.59
2022-10-05T03:54:47.691Z,101517.66
2022-10-05T03:57:18.090Z,101527.44
2022-10-05T03:59:56.908Z,101540.38
2022-10-05T04:02:44.121Z,101551.97
2022-10-05T04:05:10.948Z,101545.28
2022-10-05T04:08:15.110Z,101530.78
2022-10-05T04:10:44.468Z,101500.03
2022-10-05T04:13:37.827Z,101519.84
2022-10-05T04:16:10.127Z,101504.38
2022-10-05T04:18:48.469Z,101522.03
2022-10-05T04:21:25.518Z,101522.13
2022-10-05T04:24:30.073Z,101520.34
2022-10-05T04:26:59.307Z,101515.44
2022-10-05T04:29:44.752Z,101521.06
2022-10-05T04:32:31.309Z,101519.00
2022-10-05T04:35:22.628Z,101517.75
2022-10-05T04:38:26.569Z,101522.75
2022-10-05T04:41:10.207Z,101530.38
2022-10-05T04:43:59.613Z,101519.72
2022-10-05T04:46:38.564Z,101521.19
2022-10-05T04:49:27.574Z,101516.59
2022-10-05T04:52:48.429Z,101501.56
2022-10-05T04:55:23.847Z,101499.50
2022-10-05T04:58:11.089Z,101503.03
2022-10-05T05:00:49.840Z,101491.22
2022-10-05T05:03:47.419Z,101470.75
2022-10-05T05:06:34.772Z,101455.38
2022-10-05T05:09:26.748Z,101453.09
2022-10-05T05:11:53.530Z,101460.16
2022-10-05T05:14:32.798Z,101441.53
2022-10-05T05:17:34.089Z,101452.53
2022-10-05T05:20:22.375Z,101457.38
2022-10-05T05:22:56.917Z,101454.22
2022-10-05T05:25:36.749Z,101463.41
2022-10-05T05:28:03.618Z,101465.59
2022-10-05T05:30:33.236Z,101474.03
2022-10-05T05:33:23.421Z,101467.63
2022-10-05T05:36:14.291Z,101470.88
2022-10-05T05:39:03.893Z,101460.44
2022-10-05T05:41:31.906Z,101479.56
2022-10-05T05:44:23.489Z,101487.28
2022-10-05T05:47:05.098Z,101470.50
2022-10-05T05:49:48.070Z,101467.47
2022-10-05T05:52:18.709Z,101459.56
2022-10-05T05:55:01.206Z,101470.50
2022-10-05T05:57:33.986Z,101469.88
2022-10-05T06:00:11.411Z,101453.16
2022-10-05T06:03:01.612Z,101444.50
2022-10-05T06:05:34.230Z,101451.34
2022-10-05T06:08:23.252Z,101456.69
2022-10-05T06:10:53.126Z,101440.56
2022-10-05T06:13:26.488Z,101451.03
2022-10-05T06:15:59.146Z,101455.16
2022-10-05T06:18:25.989Z,101455.78
2022-10-05T06:20:58.168Z,101457.94
2022-10-05T06:23:45.935Z,101454.53
2022-10-05T06:26:18.647Z,101449.47
2022-10-05T06:28:49.829Z,101452.28
2022-10-05T06:31:24.758Z,101433.34
2022-10-05T06:33:52.709Z,101444.03
2022-10-05T06:36:35.106Z,101443.09
2022-10-05T06:39:23.711Z,101446.22
2022-10-05T06:42:47.509Z,101443.34
2022-10-05T06:45:38.732Z,101440.16
2022-10-05T06:48:24.384Z,101443.13
2022-10-05T06:50:58.481Z,101449.59
2022-10-05T06:53:48.630Z,101455.41
2022-10-05T06:56:41.388Z,101462.72
2022-10-05T06:59:45.112Z,101455.50
2022-10-05T07:02:11.907Z,101444.50
2022-10-05T07:05:15.913Z,101453.81
2022-10-05T07:07:58.150Z,101458.31
2022-10-05T07:10:32.810Z,101457.41
2022-10-05T07:13:11.791Z,101463.59
2022-10-05T07:15:45.388Z,101460.97
2022-10-05T07:18:14.828Z,101465.28
2022-10-05T07:20:59.510Z,101447.47
2022-10-05T07:23:55.694Z,101442.50
2022-10-05T07:26:27.395Z,101453.91
2022-10-05T07:29:30.928Z,101467.13
2022-10-05T07:32:04.329Z,101480.41
2022-10-05T07:35:29.991Z,101469.00
2022-10-05T07:37:57.999Z,101440.16
2022-10-05T07:40:45.252Z,101448.47
2022-10-05T07:43:25.030Z,101426.81
2022-10-05T07:46:03.349Z,101431.91
2022-10-05T07:48:45.349Z,101441.19
2022-10-05T07:51:33.550Z,101440.38
2022-10-05T07:54:17.048Z,101444.47
2022-10-05T07:56:56.035Z,101446.16
2022-10-05T07:59:33.850Z,101438.53
2022-10-05T08:02:08.216Z,101439.53
2022-10-05T08:04:41.766Z,101415.72
2022-10-05T08:07:13.049Z,101430.22
2022-10-05T08:09:45.592Z,101427.97
2022-10-05T08:12:57.689Z,101433.91
2022-10-05T08:15:27.148Z,101433.75
2022-10-05T08:17:56.892Z,101424.50
2022-10-05T08:20:34.090Z,101425.66
2022-10-05T08:23:19.608Z,101438.53
2022-10-05T08:25:49.993Z,101435.94
2022-10-05T08:28:25.639Z,101429.78
2022-10-05T08:31:17.152Z,101441.72
2022-10-05T08:33:50.026Z,101456.03
2022-10-05T08:36:16.895Z,101435.78
2022-10-05T08:38:43.668Z,101440.09
2022-10-05T08:41:19.472Z,101453.19
2022-10-05T08:44:29.849Z,101418.81
2022-10-05T08:47:21.271Z,101455.00
2022-10-05T08:50:02.969Z,101458.50
2022-10-05T08:52:31.588Z,101453.44
2022-10-05T08:55:10.656Z,101469.47
2022-10-05T08:58:16.289Z,101468.50
2022-10-05T09:01:25.708Z,101462.72
2022-10-05T09:04:12.929Z,101458.78
2022-10-05T09:06:51.192Z,101449.94
2022-10-05T09:09:31.687Z,101442.72
2022-10-05T09:12:14.389Z,101428.69
2022-10-05T09:15:20.566Z,101417.38
2022-10-05T09:18:20.480Z,101411.50
2022-10-05T09:20:47.171Z,101414.75
2022-10-05T09:23:36.168Z,101421.38
2022-10-05T09:26:43.836Z,101420.63
2022-10-05T09:29:47.889Z,101428.22
2022-10-05T09:32:33.888Z,101419.41
2022-10-05T09:35:32.209Z,101432.53
2022-10-05T09:38:19.056Z,101427.19
2022-10-05T09:41:07.270Z,101437.00
2022-10-05T09:44:06.717Z,101430.97
2022-10-05T09:46:52.151Z,101436.94
2022-10-05T09:49:48.197Z,101429.28
2022-10-05T09:52:25.769Z,101427.59
2022-10-05T09:55:31.035Z,101437.63
2022-10-05T09:58:35.189Z,101443.75
2022-10-05T10:01:39.421Z,101443.75
2022-10-05T10:04:16.487Z,101446.91
2022-10-05T10:07:13.449Z,101449.97
2022-10-05T10:10:17.827Z,101448.16
2022-10-05T10:13:08.529Z,101436.59
2022-10-05T10:16:14.062Z,101436.16
2022-10-05T10:18:59.545Z,101432.81
2022-10-05T10:22:03.571Z,101434.34
2022-10-05T10:24:38.589Z,101434.19
2022-10-05T10:27:08.393Z,101424.53
2022-10-05T10:29:38.187Z,101425.19
2022-10-05T10:32:22.037Z,101427.63
2022-10-05T10:34:57.710Z,101425.56
2022-10-05T10:37:53.291Z,101424.50
2022-10-05T10:40:28.612Z,101430.69
2022-10-05T10:43:07.547Z,101432.38
2022-10-05T10:45:56.417Z,101423.03
2022-10-05T10:48:29.249Z,101420.16
2022-10-05T10:51:14.517Z,101413.06
2022-10-05T10:53:47.289Z,101405.38
2022-10-05T10:56:32.730Z,101406.28
2022-10-05T10:59:10.890Z,101415.31
2022-10-05T11:02:15.279Z,101406.97
2022-10-05T11:05:19.408Z,101398.03
2022-10-05T11:08:15.208Z,101393.19
2022-10-05T11:10:46.227Z,101395.22
2022-10-05T11:13:37.748Z,101405.81
2022-10-05T11:16:23.319Z,101406.53
2022-10-05T11:19:35.189Z,101405.91
2022-10-05T11:22:25.968Z,101398.75
2022-10-05T11:25:28.049Z,101399.25
2022-10-05T11:28:19.248Z,101395.47
2022-10-05T11:30:51.965Z,101403.94
2022-10-05T11:33:55.867Z,101403.31
2022-10-05T11:36:35.014Z,101406.88
2022-10-05T11:39:20.787Z,101405.69
2022-10-05T11:41:58.330Z,101401.66
2022-10-05T11:44:30.970Z,101397.28
2022-10-05T11:47:19.550Z,101394.03
2022-10-05T11:49:52.569Z,101384.63
2022-10-05T11:52:38.950Z,101392.66
2022-10-05T11:55:24.228Z,101386.72
2022-10-05T11:57:58.028Z,101395.16
2022-10-05T12:00:31.681Z,101385.19
2022-10-05T12:03:21.355Z,101395.59
2022-10-05T12:06:10.109Z,101395.31
2022-10-05T12:08:58.253Z,101389.50
2022-10-05T12:11:27.968Z,101398.97
2022-10-05T12:14:08.328Z,101390.00
2022-10-05T12:16:45.887Z,101388.41
2022-10-05T12:19:18.230Z,101386.53
2022-10-05T12:22:10.749Z,101386.22
2022-10-05T12:24:37.534Z,101398.75
2022-10-05T12:27:16.691Z,101396.66
2022-10-05T12:29:51.152Z,101402.84
2022-10-05T12:32:51.233Z,101387.91
2022-10-05T12:35:29.998Z,101394.19
2022-10-05T12:38:25.709Z,101402.28
2022-10-05T12:41:17.968Z,101399.06
2022-10-05T12:44:03.150Z,101395.31
2022-10-05T12:46:54.901Z,101388.78
2022-10-05T12:49:48.529Z,101390.16
2022-10-05T12:52:43.452Z,101382.91
2022-10-05T12:55:26.212Z,101391.78
2022-10-05T12:57:59.590Z,101396.41
2022-10-05T13:00:26.389Z,101386.78
2022-10-05T13:03:02.410Z,101389.44
2022-10-05T13:05:40.610Z,101387.31
2022-10-05T13:08:09.611Z,101394.94
2022-10-05T13:11:14.058Z,101390.16
2022-10-05T13:14:02.533Z,101381.34
2022-10-05T13:16:29.304Z,101386.34
2022-10-05T13:19:14.785Z,101382.25
2022-10-05T13:21:47.560Z,101373.16
2022-10-05T13:24:22.348Z,101377.28
2022-10-05T13:27:27.908Z,101373.19
2022-10-05T13:30:03.934Z,101363.22
2022-10-05T13:32:40.910Z,101368.31
2022-10-05T13:35:32.667Z,101362.06
2022-10-05T13:38:01.763Z,101366.63
2022-10-05T13:40:59.168Z,101357.59
2022-10-05T13:43:56.907Z,101357.22
2022-10-05T13:46:33.591Z,101359.84
2022-10-05T13:49:26.616Z,101354.25
2022-10-05T13:51:55.751Z,101356.31
2022-10-05T13:54:46.427Z,101346.88
2022-10-05T13:57:22.172Z,101342.13
2022-10-05T13:59:55.969Z,101350.53
2022-10-05T14:02:42.268Z,101351.38
2022-10-05T14:05:21.914Z,101357.84
2022-10-05T14:07:50.129Z,101353.50
2022-10-05T14:10:31.494Z,101347.50
2022-10-05T14:12:58.392Z,101354.63
2022-10-05T14:15:33.170Z,101362.53
2022-10-05T14:17:59.976Z,101375.19
2022-10-05T14:20:28.717Z,101380.75
2022-10-05T14:23:00.016Z,101373.09
2022-10-05T14:25:28.288Z,101371.53
2022-10-05T14:27:55.070Z,101375.09
2022-10-05T14:30:24.170Z,101370.47
2022-10-05T14:33:18.498Z,101364.78
2022-10-05T14:35:50.323Z,101365.75
2022-10-05T14:38:55.782Z,101367.38
2022-10-05T14:41:25.489Z,101379.78
2022-10-05T14:44:08.892Z,101378.88
2022-10-05T14:46:36.377Z,101367.03
2022-10-05T14:49:23.206Z,101375.25
2022-10-05T14:51:53.667Z,101362.34
2022-10-05T14:54:45.227Z,101368.09
2022-10-05T14:57:26.490Z,101367.66
2022-10-05T15:00:12.749Z,101372.75
2022-10-05T15:03:05.008Z,101352.22
2022-10-05T15:05:54.179Z,101382.84
2022-10-05T15:08:23.833Z,101379.47
2022-10-05T15:10:59.448Z,101384.03
2022-10-05T15:13:29.528Z,101384.44
2022-10-05T15:16:15.202Z,101390.13
2022-10-05T15:19:00.953Z,101387.19
2022-10-05T15:21:42.490Z,101366.22
2022-10-05T15:24:13.491Z,101383.94
2022-10-05T15:26:53.771Z,101379.00
2022-10-05T15:29:27.308Z,101377.19
2022-10-05T15:32:14.753Z,101384.16
2022-10-05T15:35:08.966Z,101369.63
2022-10-05T15:37:43.195Z,101371.28
2022-10-05T15:40:25.039Z,101367.44
2022-10-05T15:42:53.289Z,101368.59
2022-10-05T15:45:42.940Z,101363.13
2022-10-05T15:48:17.999Z,101369.84
2022-10-05T15:50:59.954Z,101371.28
2022-10-05T15:53:48.448Z,101371.88
2022-10-05T15:56:27.429Z,101375.13
2022-10-05T15:59:02.293Z,101365.50
2022-10-05T16:01:32.239Z,101367.47
2022-10-05T16:04:20.306Z,101372.16
2022-10-05T16:07:11.749Z,101361.16
2022-10-05T16:09:57.310Z,101378.41
2022-10-05T16:12:46.068Z,101372.56
2022-10-05T16:15:16.392Z,101377.06
2022-10-05T16:17:48.090Z,101371.06
2022-10-05T16:21:00.119Z,101363.41
2022-10-05T16:24:05.083Z,101364.16
2022-10-05T16:26:57.618Z,101372.94
2022-10-05T16:30:06.149Z,101371.38
2022-10-05T16:33:10.449Z,101380.31
2022-10-05T16:35:55.487Z,101379.84
2022-10-05T16:38:45.755Z,101372.44
2022-10-05T16:41:35.017Z,101380.53
2022-10-05T16:44:11.804Z,101360.84
2022-10-05T16:46:50.288Z,101373.34
2022-10-05T16:49:38.553Z,101372.94
2022-10-05T16:52:08.574Z,101381.28
2022-10-05T16:54:45.445Z,101379.78
2022-10-05T16:57:18.698Z,101377.47
2022-10-05T16:59:54.137Z,101374.03
2022-10-05T17:02:31.513Z,101379.31
2022-10-05T17:05:24.929Z,101371.41
2022-10-05T17:08:16.712Z,101373.50
2022-10-05T17:11:05.113Z,101377.09
2022-10-05T17:13:37.543Z,101375.31
2022-10-05T17:16:36.578Z,101373.75
2022-10-05T17:19:19.426Z,101376.25
2022-10-05T17:21:51.948Z,101382.16
2022-10-05T17:24:27.569Z,101374.13
2022-10-05T17:27:35.749Z,101373.81
2022-10-05T17:30:27.478Z,101382.38
2022-10-05T17:33:14.079Z,101383.72
2022-10-05T17:36:01.010Z,101392.13
2022-10-05T17:38:30.836Z,101395.25
2022-10-05T17:41:00.929Z,101388.63
2022-10-05T17:43:29.071Z,101391.91
2022-10-05T17:46:00.826Z,101396.03
2022-10-05T17:48:50.092Z,101387.69
2022-10-05T17:51:48.127Z,101385.03
2022-10-05T17:55:02.554Z,101389.00
2022-10-05T17:57:29.489Z,101374.44
2022-10-05T17:59:57.430Z,101371.00
2022-10-05T18:02:42.982Z,101381.75
2022-10-05T18:05:12.794Z,101376.91
2022-10-05T18:07:48.218Z,101360.41
2022-10-05T18:10:29.252Z,101378.38
2022-10-05T18:12:59.007Z,101378.88
2022-10-05T18:15:25.692Z,101375.69
2022-10-05T18:17:58.218Z,101379.50
2022-10-05T18:20:26.522Z,101381.28
2022-10-05T18:23:23.945Z,101375.59
2022-10-05T18:26:02.195Z,101362.44
2022-10-05T18:28:47.516Z,101379.56
2022-10-05T18:31:45.333Z,101382.44
2022-10-05T18:34:33.722Z,101379.25
2022-10-05T18:37:29.634Z,101373.78
2022-10-05T18:40:09.775Z,101372.00
2022-10-05T18:42:57.735Z,101374.88
2022-10-05T18:45:39.623Z,101370.84
2022-10-05T18:48:17.306Z,101372.19
2022-10-05T18:51:05.558Z,101375.63
2022-10-05T18:53:44.452Z,101383.00
2022-10-05T18:56:45.817Z,101374.72
2022-10-05T18:59:34.158Z,101377.00
2022-10-05T19:02:07.137Z,101378.31
2022-10-05T19:05:04.505Z,101386.53
2022-10-05T19:07:40.845Z,101382.63
2022-10-05T19:10:42.322Z,101375.97
2022-10-05T19:13:30.858Z,101379.53
2022-10-05T19:16:30.002Z,101364.56
2022-10-05T19:19:33.275Z,101372.56
2022-10-05T19:22:04.438Z,101366.13
2022-10-05T19:24:47.461Z,101364.56
2022-10-05T19:27:33.977Z,101371.81
2022-10-05T19:30:10.827Z,101362.91
2022-10-05T19:32:58.964Z,101363.88
2022-10-05T19:35:40.200Z,101365.91
2022-10-05T19:38:15.303Z,101362.94
2022-10-05T19:41:11.536Z,101358.03
2022-10-05T19:43:50.428Z,101355.34
2022-10-05T19:46:54.470Z,101355.09
2022-10-05T19:49:57.424Z,101354.84
2022-10-05T19:52:49.809Z,101357.94
2022-10-05T19:55:26.430Z,101355.09
2022-10-05T19:57:58.103Z,101361.75
2022-10-05T20:00:30.560Z,101366.59
2022-10-05T20:03:17.333Z,101367.78
2022-10-05T20:05:44.319Z,101356.13
2022-10-05T20:08:18.561Z,101357.44
2022-10-05T20:10:46.283Z,101358.97
2022-10-05T20:13:20.858Z,101355.25
2022-10-05T20:16:31.368Z,101365.84
2022-10-05T20:19:16.876Z,101365.84
2022-10-05T20:22:00.647Z,101363.59
2022-10-05T20:24:28.579Z,101354.41
2022-10-05T20:27:05.039Z,101359.53
2022-10-05T20:29:35.563Z,101362.25
2022-10-05T20:32:20.559Z,101358.59
2022-10-05T20:34:47.960Z,101350.25
2022-10-05T20:37:16.301Z,101360.47
2022-10-05T20:39:43.388Z,101347.91
2022-10-05T20:42:10.340Z,101342.16
2022-10-05T20:44:37.498Z,101343.34
2022-10-05T20:47:05.865Z,101339.75
2022-10-05T20:49:32.779Z,101343.91
2022-10-05T20:51:59.837Z,101349.25
2022-10-05T20:54:26.899Z,101338.19
2022-10-05T20:56:54.980Z,101342.94
2022-10-05T20:59:22.998Z,101335.47
2022-10-05T21:01:49.840Z,101336.28
2022-10-05T21:04:30.199Z,101333.06
2022-10-05T21:07:01.157Z,101321.63
2022-10-05T21:09:27.999Z,101324.03
2022-10-05T21:11:56.142Z,101323.78
2022-10-05T21:14:24.017Z,101314.03
2022-10-05T21:16:51.336Z,101317.69
2022-10-05T21:19:18.127Z,101326.06
2022-10-05T21:21:45.942Z,101303.81
2022-10-05T21:24:14.087Z,101323.41
2022-10-05T21:26:41.804Z,101329.81
2022-10-05T21:29:12.468Z,101321.47
2022-10-05T21:31:40.079Z,101316.28
2022-10-05T21:34:07.200Z,101321.19
2022-10-05T21:36:34.268Z,101325.88
2022-10-05T21:39:01.359Z,101315.06
2022-10-05T21:41:28.338Z,101328.09
2022-10-05T21:43:55.138Z,101326.56
2022-10-05T21:46:22.899Z,101319.66
2022-10-05T21:48:49.946Z,101306.47
2022-10-05T21:51:18.642Z,101315.59
2022-10-05T21:54:11.799Z,101308.25
2022-10-05T21:56:40.217Z,101309.38
2022-10-05T21:59:08.580Z,101314.59
2022-10-05T22:01:36.104Z,101322.63
2022-10-05T22:04:04.302Z,101299.00
2022-10-05T22:06:31.200Z,101300.22
2022-10-05T22:08:58.280Z,101301.06
2022-10-05T22:11:25.199Z,101313.69
2022-10-05T22:13:52.587Z,101309.19
2022-10-05T22:16:21.321Z,101305.22
2022-10-05T22:18:48.709Z,101309.41
2022-10-05T22:21:15.668Z,101306.25
2022-10-05T22:23:43.217Z,101307.09
2022-10-05T22:26:11.200Z,101312.41
2022-10-05T22:28:38.622Z,101314.19
2022-10-05T22:31:06.518Z,101314.53
2022-10-05T22:33:33.428Z,101298.78
2022-10-05T22:36:00.382Z,101308.59
2022-10-05T22:38:27.661Z,101303.50
2022-10-05T22:40:54.757Z,101315.06
2022-10-05T22:43:21.598Z,101319.72
2022-10-05T22:45:48.511Z,101303.59
2022-10-05T22:48:16.138Z,101310.38
2022-10-05T22:50:46.338Z,101313.59
2022-10-05T22:53:13.642Z,101306.13
2022-10-05T22:55:40.557Z,101317.97
2022-10-05T22:58:07.376Z,101319.00
2022-10-05T23:00:56.329Z,101319.00
2022-10-05T23:03:20.957Z,101313.91
2022-10-05T23:05:47.857Z,101313.59
2022-10-05T23:08:16.138Z,101325.06
2022-10-05T23:10:43.498Z,101322.97
2022-10-05T23:13:10.319Z,101321.63
2022-10-05T23:15:37.204Z,101321.41
2022-10-05T23:18:04.099Z,101325.28
2022-10-05T23:20:30.981Z,101309.84
2022-10-05T23:22:59.765Z,101315.84
2022-10-05T23:25:26.558Z,101308.28
2022-10-05T23:27:53.400Z,101316.59
2022-10-05T23:30:20.301Z,101320.03
2022-10-05T23:32:47.177Z,101319.81
2022-10-05T23:35:14.079Z,101308.78
2022-10-05T23:37:42.489Z,101278.00
2022-10-05T23:40:12.199Z,101324.41
2022-10-05T23:42:42.072Z,101305.22
2022-10-05T23:45:10.060Z,101328.06
2022-10-05T23:47:37.017Z,101321.06
2022-10-05T23:50:04.756Z,101323.66
2022-10-05T23:52:31.619Z,101316.81
2022-10-05T23:54:58.438Z,101314.06
2022-10-05T23:57:25.277Z,101327.09
2022-10-05T23:59:52.177Z,101320.22
